Terminal Aerodrome Forecast
Issued by NWS Sioux Falls, SD

Home | Current Version | Previous Version | Graphics & Text | Print | Product List | Glossary On
Versions: 1 2 3 4 5 6 7 8 9 10 11 12 13 14 15 16 17 18 19 20 21 22 23 24 25 26 27 28
816
FTUS43 KFSD 190521
TAFSUX
TAF
KSUX 190521Z 1906/2006 00000KT P6SM SKC
     FM191500 14006KT P6SM SKC
     FM191800 16012G17KT P6SM SKC
     FM200100 15007KT P6SM SKC
     FM200400 15009KT P6SM FEW250=

USA.gov is the U.S. government's official web portal to all federal, state and local government web resources and services.